Time;durP1;ratioP1;P1;durP2;ratioP2;P2;SDS_P1;SDS_P2;PMS_P1;PMS_P2;Temp;Humidity;BMP_temperature;BMP_pressure;BME280_temperature;BME280_humidity;BME280_pressure;Samples;Min_cycle;Max_cycle;Signal;HPM_P1;HPM_P2
2023/06/17 00:00:25;;;;;;;1.13;0.60;;;15.70;99.90;;;;;;5088353;28;20089;-74
2023/06/17 00:02:51;;;;;;;2.72;2.35;;;15.70;99.90;;;;;;5089043;28;20043;-74
2023/06/17 00:05:17;;;;;;;0.80;0.80;;;15.70;99.90;;;;;;5088491;28;20405;-75
2023/06/17 00:07:43;;;;;;;;;;;15.70;99.90;;;;;;5089642;28;20058;-74
2023/06/17 00:10:09;;;;;;;0.85;0.63;;;15.70;99.90;;;;;;5088897;28;19916;-74
2023/06/17 00:12:36;;;;;;;1.35;1.25;;;15.70;99.90;;;;;;5055972;28;20143;-74
2023/06/17 00:15:04;;;;;;;1.30;1.00;;;15.80;99.90;;;;;;5089151;28;20144;-74
2023/06/17 00:17:32;;;;;;;0.73;0.68;;;15.80;99.90;;;;;;5088590;28;20036;-74
2023/06/17 00:20:01;;;;;;;1.10;1.08;;;15.80;99.90;;;;;;5072068;28;20044;-74
2023/06/17 00:22:29;;;;;;;3.92;1.52;;;15.70;99.90;;;;;;5088526;28;20044;-74
2023/06/17 00:24:56;;;;;;;1.60;1.50;;;15.70;99.90;;;;;;5088269;28;20040;-74
2023/06/17 00:27:22;;;;;;;1.17;1.08;;;15.70;99.90;;;;;;5088037;28;20504;-74
2023/06/17 00:29:47;;;;;;;2.80;2.05;;;15.80;99.90;;;;;;5088329;28;20067;-74
2023/06/17 00:32:13;;;;;;;;;;;15.80;99.90;;;;;;5071822;28;20044;-74
2023/06/17 00:34:39;;;;;;;1.25;0.65;;;15.80;99.90;;;;;;5088611;28;20007;-74
2023/06/17 00:37:04;;;;;;;;;;;15.80;99.90;;;;;;5071946;28;20044;-74
2023/06/17 00:39:31;;;;;;;1.45;1.45;;;15.80;99.90;;;;;;5088415;28;20011;-74
2023/06/17 00:42:00;;;;;;;;;;;15.80;99.90;;;;;;5072044;28;20052;-74
2023/06/17 00:44:25;;;;;;;1.80;0.85;;;15.80;99.90;;;;;;5087828;28;20383;-74
2023/06/17 00:46:51;;;;;;;;;;;15.80;99.90;;;;;;5071803;28;20044;-74
2023/06/17 00:49:17;;;;;;;1.13;1.02;;;15.80;99.90;;;;;;5088088;28;19953;-74
2023/06/17 00:51:44;;;;;;;0.60;0.60;;;15.80;99.90;;;;;;5095487;28;20046;-74
2023/06/17 00:54:15;;;;;;;0.70;0.70;;;15.80;99.90;;;;;;5096219;28;20040;-74
2023/06/17 00:56:41;;;;;;;0.68;0.68;;;15.90;99.90;;;;;;5088237;28;20522;-74
2023/06/17 00:59:08;;;;;;;0.93;0.93;;;15.80;99.90;;;;;;5088649;28;20119;-74
2023/06/17 01:01:36;;;;;;;1.48;1.38;;;15.80;99.90;;;;;;5087378;28;20040;-74
2023/06/17 01:04:04;;;;;;;1.35;1.25;;;15.80;99.90;;;;;;5088291;28;20052;-74
2023/06/17 01:06:55;;;;;;;0.30;0.30;;;15.80;99.90;;;;;;5087825;28;20087;-75
2023/06/17 01:09:27;;;;;;;1.08;0.98;;;15.80;99.90;;;;;;5088033;28;20075;-74
2023/06/17 01:11:56;;;;;;;1.48;0.98;;;15.80;99.90;;;;;;5088053;28;20113;-74
2023/06/17 01:14:22;;;;;;;1.05;0.65;;;15.80;99.90;;;;;;5088515;28;20047;-74
2023/06/17 01:16:54;;;;;;;1.30;1.20;;;15.80;99.90;;;;;;5089316;28;20401;-74
2023/06/17 01:19:26;;;;;;;28.98;2.58;;;15.80;99.90;;;;;;5071780;28;20451;-74
2023/06/17 01:21:53;;;;;;;0.98;0.90;;;15.80;99.90;;;;;;5088443;28;20109;-74
2023/06/17 01:24:27;;;;;;;0.85;0.85;;;15.70;99.90;;;;;;5087949;28;20524;-73
2023/06/17 01:27:00;;;;;;;2.22;2.13;;;15.80;99.90;;;;;;5084437;28;20512;-73
2023/06/17 01:29:30;;;;;;;0.68;0.68;;;15.80;99.90;;;;;;5083211;28;20131;-74
2023/06/17 01:31:57;;;;;;;0.70;0.70;;;15.70;99.90;;;;;;5068274;28;20401;-74
2023/06/17 01:34:52;;;;;;;6.85;0.77;;;15.70;99.90;;;;;;5071453;28;20039;-74
2023/06/17 01:37:25;;;;;;;1.00;0.77;;;15.70;99.90;;;;;;5071197;28;20093;-73
2023/06/17 01:39:54;;;;;;;3.45;1.05;;;15.60;99.90;;;;;;5088068;28;20089;-73
2023/06/17 01:42:27;;;;;;;1.70;1.35;;;15.60;99.90;;;;;;5070954;28;20036;-73
2023/06/17 01:44:54;;;;;;;0.30;0.30;;;15.60;99.90;;;;;;5087762;28;20044;-73
2023/06/17 01:47:21;;;;;;;1.98;1.13;;;15.60;99.90;;;;;;5070785;28;20040;-73
2023/06/17 01:49:46;;;;;;;0.90;0.90;;;15.60;99.90;;;;;;5088035;28;20550;-74
2023/06/17 01:52:12;;;;;;;;;;;15.60;99.90;;;;;;5099209;28;20036;-74
2023/06/17 01:54:38;;;;;;;1.20;0.98;;;15.50;99.90;;;;;;5075555;28;19919;-74
2023/06/17 01:57:04;;;;;;;0.90;0.90;;;15.50;99.90;;;;;;5088123;28;20117;-73
2023/06/17 01:59:30;;;;;;;0.52;0.43;;;15.50;99.90;;;;;;5087444;28;20054;-75
2023/06/17 02:01:56;;;;;;;;;;;15.50;99.90;;;;;;5071243;28;20504;-74
2023/06/17 02:04:22;;;;;;;0.88;0.88;;;15.40;99.90;;;;;;5070211;28;19923;-73
2023/06/17 02:06:47;;;;;;;;;;;15.40;99.90;;;;;;5087842;28;20401;-73
2023/06/17 02:09:13;;;;;;;0.70;0.65;;;15.40;99.90;;;;;;5070586;28;19915;-73
2023/06/17 02:11:38;;;;;;;;;;;15.40;99.90;;;;;;5087690;28;20046;-74
2023/06/17 02:14:04;;;;;;;9.32;1.00;;;15.30;99.90;;;;;;5072085;28;19920;-73
2023/06/17 02:16:30;;;;;;;;;;;15.30;99.90;;;;;;5074596;28;20047;-73
2023/06/17 02:18:56;;;;;;;3.17;1.02;;;15.30;99.90;;;;;;5091125;28;20010;-74
2023/06/17 02:21:22;;;;;;;;;;;15.30;99.90;;;;;;5090947;28;20050;-73
2023/06/17 02:23:49;;;;;;;0.47;0.47;;;15.30;99.90;;;;;;5074214;28;19920;-73
2023/06/17 02:26:17;;;;;;;1.20;1.20;;;15.30;99.90;;;;;;5090900;28;20048;-73
2023/06/17 02:28:43;;;;;;;1.00;1.00;;;15.30;99.90;;;;;;5090479;28;20497;-74
2023/06/17 02:31:09;;;;;;;2.28;1.42;;;15.30;99.90;;;;;;5089839;28;20143;-73
2023/06/17 02:33:35;;;;;;;0.65;0.65;;;15.30;99.90;;;;;;5089705;28;20117;-75
2023/06/17 02:36:01;;;;;;;2.88;1.40;;;15.30;99.90;;;;;;5090037;28;20087;-75
2023/06/17 02:38:28;;;;;;;3.65;1.13;;;15.40;99.90;;;;;;5072359;28;20081;-74
2023/06/17 02:40:54;;;;;;;1.70;1.30;;;15.40;99.90;;;;;;5089905;28;20504;-73
2023/06/17 02:43:20;;;;;;;0.32;0.28;;;15.40;99.90;;;;;;5089356;28;20397;-74
2023/06/17 02:45:46;;;;;;;1.30;0.93;;;15.40;99.90;;;;;;5072608;28;20127;-74
2023/06/17 02:48:12;;;;;;;;;;;15.40;99.90;;;;;;5089830;28;20151;-74
2023/06/17 02:50:37;;;;;;;0.32;0.32;;;15.40;99.90;;;;;;5089285;28;19920;-74
2023/06/17 02:53:04;;;;;;;;;;;15.40;99.90;;;;;;5089595;28;20534;-73
2023/06/17 02:55:30;;;;;;;0.52;0.52;;;15.40;99.90;;;;;;5106016;28;19982;-73
2023/06/17 02:57:56;;;;;;;;;;;15.40;99.90;;;;;;5089661;28;20051;-73
2023/06/17 03:00:22;;;;;;;0.43;0.43;;;15.40;99.90;;;;;;5088993;28;19916;-74
2023/06/17 03:02:48;;;;;;;0.68;0.68;;;15.40;99.90;;;;;;5072803;28;20051;-74
2023/06/17 03:05:14;;;;;;;0.60;0.60;;;15.40;99.90;;;;;;5088883;28;20492;-74
2023/06/17 03:07:40;;;;;;;4.13;1.67;;;15.40;99.90;;;;;;5072031;28;20044;-74
2023/06/17 03:10:07;;;;;;;0.98;0.63;;;15.40;99.90;;;;;;5088824;28;20048;-74
2023/06/17 03:12:33;;;;;;;1.75;1.65;;;15.40;99.90;;;;;;5088176;28;20040;-73
2023/06/17 03:14:58;;;;;;;;;;;15.40;99.90;;;;;;5088891;28;20118;-74
2023/06/17 03:17:24;;;;;;;1.35;1.15;;;15.40;99.90;;;;;;5054172;28;19916;-74
2023/06/17 03:19:51;;;;;;;1.27;1.08;;;15.50;99.90;;;;;;5071640;28;20388;-74
2023/06/17 03:22:17;;;;;;;2.03;0.88;;;15.40;99.90;;;;;;5088074;28;20083;-74
2023/06/17 03:24:42;;;;;;;;;;;15.40;99.90;;;;;;5070810;28;20079;-73
2023/06/17 03:27:08;;;;;;;3.42;1.58;;;15.40;99.90;;;;;;5074414;28;19924;-73
2023/06/17 03:29:36;;;;;;;1.30;1.10;;;15.30;99.90;;;;;;5031351;28;1156875;-73
2023/06/17 03:32:02;;;;;;;1.52;1.42;;;15.30;99.90;;;;;;5089640;28;20051;-74
2023/06/17 03:34:28;;;;;;;;;;;15.20;99.90;;;;;;5090080;28;20393;-74
2023/06/17 03:36:56;;;;;;;0.80;0.80;;;15.20;99.90;;;;;;5073135;28;19920;-74
2023/06/17 03:39:22;;;;;;;2.17;2.08;;;15.30;99.90;;;;;;5089311;28;20066;-73
2023/06/17 03:41:48;;;;;;;;;;;15.30;99.90;;;;;;5090163;28;20036;-73
2023/06/17 03:44:13;;;;;;;1.40;1.33;;;15.30;99.90;;;;;;5090111;28;19998;-73
2023/06/17 03:46:39;;;;;;;;;;;15.30;99.90;;;;;;5089917;28;20036;-74
2023/06/17 03:49:05;;;;;;;0.43;0.43;;;15.20;99.90;;;;;;5089969;28;19916;-74
2023/06/17 03:51:31;;;;;;;;;;;15.30;99.90;;;;;;5089824;28;20028;-74
2023/06/17 03:53:56;;;;;;;3.17;0.77;;;15.30;99.90;;;;;;5090613;28;20053;-74
2023/06/17 03:56:22;;;;;;;;;;;15.20;99.90;;;;;;5090205;28;20169;-74
2023/06/17 03:58:48;;;;;;;0.90;0.57;;;15.30;99.90;;;;;;5072935;28;19920;-73
2023/06/17 04:01:14;;;;;;;;;;;15.30;99.90;;;;;;5090098;28;20546;-74
2023/06/17 04:03:41;;;;;;;2.78;0.80;;;15.20;99.90;;;;;;5072699;28;19916;-74
2023/06/17 04:06:08;;;;;;;2.35;1.70;;;15.20;99.90;;;;;;5089497;28;20441;-73
2023/06/17 04:08:35;;;;;;;1.70;1.60;;;15.20;99.90;;;;;;5095128;28;20048;-73
2023/06/17 04:11:02;;;;;;;1.90;1.73;;;15.30;99.90;;;;;;5092182;28;20378;-73
2023/06/17 04:13:28;;;;;;;1.70;1.50;;;15.20;99.90;;;;;;5055537;28;20070;-74
2023/06/17 04:15:54;;;;;;;;;;;15.20;99.90;;;;;;5089805;28;20047;-74
2023/06/17 04:18:20;;;;;;;4.18;1.20;;;15.20;99.90;;;;;;5088945;28;19919;-74
2023/06/17 04:20:45;;;;;;;;;;;15.20;99.90;;;;;;5072172;28;20048;-74
2023/06/17 04:23:11;;;;;;;0.90;0.80;;;15.20;99.90;;;;;;5088602;28;19981;-74
2023/06/17 04:25:36;;;;;;;;;;;15.20;99.90;;;;;;5088644;28;20056;-74
2023/06/17 04:28:07;;;;;;;2.35;2.15;;;15.20;99.90;;;;;;5088436;28;19922;-74
2023/06/17 04:30:33;;;;;;;1.85;0.60;;;15.20;99.90;;;;;;5105303;28;20047;-74
2023/06/17 04:33:00;;;;;;;0.73;0.73;;;15.30;99.90;;;;;;5088340;28;20123;-74
2023/06/17 04:35:29;;;;;;;1.25;1.15;;;15.30;99.90;;;;;;5122611;27;20040;-73
2023/06/17 04:37:55;;;;;;;1.73;1.63;;;15.30;99.90;;;;;;5088348;28;20051;-73
2023/06/17 04:40:22;;;;;;;0.70;0.70;;;15.30;99.90;;;;;;5088547;28;20042;-74
2023/06/17 04:42:49;;;;;;;0.63;0.63;;;15.30;99.90;;;;;;5071456;28;20071;-74
2023/06/17 04:45:17;;;;;;;1.75;1.17;;;15.40;99.90;;;;;;5088317;28;20115;-74
2023/06/17 04:47:46;;;;;;;0.73;0.73;;;15.40;99.90;;;;;;5071514;28;20085;-74
2023/06/17 04:50:12;;;;;;;0.68;0.68;;;15.40;99.90;;;;;;5068396;28;20044;-74
2023/06/17 04:52:42;;;;;;;2.10;1.92;;;15.40;99.90;;;;;;5085127;28;20032;-73
2023/06/17 04:55:13;;;;;;;0.45;0.30;;;15.40;99.90;;;;;;5088486;28;20493;-74
2023/06/17 04:57:41;;;;;;;0.75;0.75;;;15.40;99.90;;;;;;5055308;28;20119;-74
2023/06/17 05:00:08;;;;;;;1.80;1.67;;;15.40;99.90;;;;;;5088152;28;20067;-74
2023/06/17 05:02:34;;;;;;;1.17;0.98;;;15.50;99.90;;;;;;5071225;28;20039;-73
2023/06/17 05:05:00;;;;;;;0.43;0.43;;;15.50;99.90;;;;;;5071467;28;20046;-74
2023/06/17 05:07:26;;;;;;;;;;;15.50;99.90;;;;;;5088553;28;20044;-74
2023/06/17 05:09:51;;;;;;;0.77;0.77;;;15.60;99.90;;;;;;5071309;28;19915;-74
2023/06/17 05:12:17;;;;;;;;;;;15.60;99.90;;;;;;5055492;28;20043;-74
2023/06/17 05:14:42;;;;;;;1.75;1.27;;;15.50;99.90;;;;;;5087841;28;20288;-74
2023/06/17 05:17:08;;;;;;;1.48;1.38;;;15.60;99.90;;;;;;5054592;28;20117;-74
2023/06/17 05:19:34;;;;;;;;;;;15.60;99.90;;;;;;5088401;28;20043;-74
2023/06/17 05:21:59;;;;;;;1.35;1.25;;;15.60;99.90;;;;;;5088340;28;19927;-74
2023/06/17 05:24:25;;;;;;;;;;;15.60;99.90;;;;;;5122535;28;20048;-74
2023/06/17 05:26:50;;;;;;;2.65;1.55;;;15.60;99.90;;;;;;5069707;28;19924;-74
2023/06/17 05:29:16;;;;;;;;;;;15.60;99.90;;;;;;5068277;28;20086;-74
2023/06/17 05:31:42;;;;;;;1.27;1.17;;;15.60;99.90;;;;;;5084035;28;20281;-74
2023/06/17 05:34:07;;;;;;;;;;;15.60;99.90;;;;;;5068066;28;20048;-74
2023/06/17 05:36:33;;;;;;;0.55;0.55;;;15.60;99.90;;;;;;5067228;28;19982;-74
2023/06/17 05:38:58;;;;;;;;;;;15.70;99.90;;;;;;5068030;28;20048;-74
2023/06/17 05:41:24;;;;;;;1.90;1.77;;;15.70;99.90;;;;;;5067638;28;19969;-74
2023/06/17 05:43:50;;;;;;;;;;;15.70;99.90;;;;;;5066936;28;20047;-74
2023/06/17 05:46:15;;;;;;;1.00;0.95;;;15.80;99.90;;;;;;5071022;28;19989;-75
2023/06/17 05:48:41;;;;;;;;;;;15.80;99.90;;;;;;5071921;28;20558;-74
2023/06/17 05:51:07;;;;;;;2.45;2.20;;;15.80;99.90;;;;;;5076745;28;19924;-74
2023/06/17 05:53:32;;;;;;;0.85;0.85;;;15.80;99.90;;;;;;5105120;28;20334;-74
2023/06/17 05:55:58;;;;;;;0.65;0.65;;;15.80;99.90;;;;;;5074565;28;20047;-76
2023/06/17 05:58:23;;;;;;;;;;;15.80;99.90;;;;;;5091753;28;20066;-75
2023/06/17 06:00:49;;;;;;;0.50;0.50;;;15.80;99.90;;;;;;5090767;28;19920;-75
2023/06/17 06:03:15;;;;;;;;;;;15.70;99.90;;;;;;5091750;28;20047;-75
2023/06/17 06:05:40;;;;;;;1.08;1.00;;;15.70;99.90;;;;;;5091016;28;19950;-76
2023/06/17 06:08:06;;;;;;;;;;;15.90;99.90;;;;;;5074808;28;20048;-75
2023/06/17 06:10:32;;;;;;;1.48;1.42;;;15.90;99.90;;;;;;5091583;28;20075;-75
2023/06/17 06:12:59;;;;;;;1.27;0.85;;;16.00;99.90;;;;;;5074294;28;20040;-75
2023/06/17 06:15:25;;;;;;;3.28;2.05;;;16.10;99.90;;;;;;5074455;28;20035;-72
2023/06/17 06:17:51;;;;;;;0.40;0.40;;;16.10;99.90;;;;;;5090937;28;20040;-74
2023/06/17 06:20:17;;;;;;;1.50;1.40;;;16.20;99.90;;;;;;5074168;28;20516;-75
2023/06/17 06:22:43;;;;;;;;;;;16.30;99.90;;;;;;5090973;28;20040;-75
2023/06/17 06:25:09;;;;;;;2.22;1.50;;;16.40;99.90;;;;;;5091368;28;19920;-73
2023/06/17 06:27:35;;;;;;;0.77;0.50;;;16.40;99.90;;;;;;5108732;28;20488;-73
2023/06/17 06:30:00;;;;;;;;;;;16.40;99.90;;;;;;5109338;28;20098;-73
2023/06/17 06:32:26;;;;;;;2.47;2.38;;;16.50;99.90;;;;;;5091643;28;19963;-74
2023/06/17 06:34:52;;;;;;;;;;;16.60;99.90;;;;;;5108334;28;20052;-74
2023/06/17 06:37:17;;;;;;;1.23;1.13;;;16.60;99.90;;;;;;5091058;28;19946;-74
2023/06/17 06:39:43;;;;;;;;;;;16.70;99.90;;;;;;5090837;28;20051;-74
2023/06/17 06:42:11;;;;;;;1.00;0.93;;;16.70;99.90;;;;;;5090792;28;19964;-74
2023/06/17 06:44:36;;;;;;;1.10;0.68;;;16.90;99.90;;;;;;5091440;28;20056;-74
2023/06/17 06:47:02;;;;;;;;;;;17.00;99.90;;;;;;5091633;28;20504;-74
2023/06/17 06:49:28;;;;;;;1.05;0.80;;;17.10;99.90;;;;;;5125175;27;19919;-74
2023/06/17 06:51:53;;;;;;;;;;;17.30;99.90;;;;;;5090525;28;20428;-74
2023/06/17 06:54:19;;;;;;;0.77;0.77;;;17.40;99.90;;;;;;5090634;28;19922;-74
2023/06/17 06:56:45;;;;;;;;;;;17.60;99.90;;;;;;5090979;28;20050;-75
2023/06/17 06:59:11;;;;;;;0.60;0.45;;;17.70;99.90;;;;;;5090163;28;20325;-74
2023/06/17 07:01:36;;;;;;;;;;;17.70;99.90;;;;;;5090898;28;20067;-74
2023/06/17 07:04:02;;;;;;;0.22;0.22;;;17.80;99.90;;;;;;5090022;28;20496;-74
2023/06/17 07:06:28;;;;;;;;;;;18.00;99.90;;;;;;5073758;28;20044;-74
2023/06/17 07:08:53;;;;;;;0.60;0.60;;;18.20;99.90;;;;;;5090019;28;19934;-74
2023/06/17 07:11:19;;;;;;;;;;;18.40;99.90;;;;;;5090930;28;20123;-74
2023/06/17 07:13:44;;;;;;;0.85;0.85;;;18.40;99.90;;;;;;5090194;28;19920;-74
2023/06/17 07:16:10;;;;;;;0.95;0.95;;;18.50;99.90;;;;;;5073987;28;20040;-74
2023/06/17 07:18:36;;;;;;;;;;;18.50;99.90;;;;;;5090673;28;20044;-73
2023/06/17 07:21:02;;;;;;;1.65;0.77;;;18.70;99.90;;;;;;5073085;28;19920;-74
2023/06/17 07:23:27;;;;;;;;;;;18.80;99.90;;;;;;5056998;28;20044;-74
2023/06/17 07:25:53;;;;;;;1.65;1.55;;;18.80;99.90;;;;;;5123192;27;19928;-74
2023/06/17 07:28:18;;;;;;;;;;;18.80;99.90;;;;;;5089872;28;20475;-74
2023/06/17 07:30:44;;;;;;;1.20;1.10;;;18.90;99.90;;;;;;5089132;28;19923;-74
2023/06/17 07:33:10;;;;;;;0.70;0.70;;;19.00;99.90;;;;;;5089917;28;20492;-75
2023/06/17 07:35:36;;;;;;;1.10;1.00;;;19.30;99.90;;;;;;5073175;28;20062;-75
2023/06/17 07:38:01;;;;;;;;;;;19.50;99.90;;;;;;5073151;28;20474;-75
2023/06/17 07:40:27;;;;;;;0.43;0.43;;;19.60;99.90;;;;;;5073331;28;19923;-75
2023/06/17 07:42:53;;;;;;;;;;;19.70;99.90;;;;;;5056707;28;20043;-75
2023/06/17 07:45:18;;;;;;;0.77;0.77;;;19.80;99.90;;;;;;5073304;28;20062;-75
2023/06/17 07:47:44;;;;;;;;;;;19.80;99.90;;;;;;5072789;28;20489;-75
2023/06/17 07:50:10;;;;;;;0.95;0.80;;;19.80;99.90;;;;;;5106533;28;19922;-75
2023/06/17 07:52:36;;;;;;;;;;;19.80;99.90;;;;;;5106953;28;20036;-76
2023/06/17 07:55:07;;;;;;;1.10;1.00;;;19.70;99.90;;;;;;5106078;28;19922;-76
2023/06/17 07:57:33;;;;;;;0.85;0.75;;;19.60;99.90;;;;;;5073244;28;20104;-75
2023/06/17 07:59:59;;;;;;;1.10;1.00;;;19.60;99.90;;;;;;5089293;28;20048;-75
2023/06/17 08:02:24;;;;;;;0.80;0.80;;;19.60;99.90;;;;;;5089584;28;20165;-75
2023/06/17 08:04:50;;;;;;;;;;;19.50;99.90;;;;;;5090010;28;20050;-76
2023/06/17 08:07:16;;;;;;;0.47;0.45;;;19.50;99.90;;;;;;5072312;28;19924;-75
2023/06/17 08:09:42;;;;;;;1.63;1.52;;;19.50;99.90;;;;;;5072230;28;20040;-75
2023/06/17 08:12:07;;;;;;;;;;;19.50;99.90;;;;;;5071806;28;20043;-75
2023/06/17 08:14:33;;;;;;;1.08;1.05;;;19.60;99.90;;;;;;5072850;28;19920;-76
2023/06/17 08:16:59;;;;;;;;;;;19.60;99.90;;;;;;5089551;28;20132;-75
2023/06/17 08:19:24;;;;;;;1.40;1.25;;;19.70;99.90;;;;;;5072382;28;19920;-75
2023/06/17 08:21:50;;;;;;;;;;;19.70;99.90;;;;;;5072038;28;20043;-75
2023/06/17 08:24:24;;;;;;;0.65;0.65;;;19.70;99.90;;;;;;5088877;28;19916;-75
2023/06/17 08:26:51;;;;;;;2.25;1.65;;;19.80;99.90;;;;;;5071235;28;20102;-75
2023/06/17 08:29:18;;;;;;;0.80;0.75;;;19.90;99.90;;;;;;5088697;28;20051;-75
2023/06/17 08:31:46;;;;;;;3.47;0.90;;;20.10;99.90;;;;;;5071965;28;20040;-75
2023/06/17 08:34:12;;;;;;;3.78;1.08;;;20.30;99.90;;;;;;5123067;27;20043;-75
2023/06/17 08:36:40;;;;;;;1.25;0.98;;;20.50;99.90;;;;;;5088491;28;20092;-75
2023/06/17 08:39:06;;;;;;;0.73;0.38;;;20.60;99.90;;;;;;5088495;28;20428;-75
2023/06/17 08:41:41;;;;;;;1.05;0.70;;;20.60;99.90;;;;;;5088422;28;20040;-75
2023/06/17 08:44:11;;;;;;;0.43;0.43;;;20.80;99.90;;;;;;5087997;28;20516;-75
2023/06/17 08:46:38;;;;;;;2.00;1.80;;;20.80;99.90;;;;;;5088542;28;20464;-75
2023/06/17 08:49:04;;;;;;;0.28;0.28;;;21.00;99.90;;;;;;5087849;28;20350;-75
2023/06/17 08:51:30;;;;;;;0.63;0.63;;;21.20;99.90;;;;;;5090098;28;20096;-75
2023/06/17 08:53:59;;;;;;;1.67;1.58;;;21.20;99.90;;;;;;5088169;28;20047;-76
2023/06/17 08:56:25;;;;;;;1.73;1.30;;;21.10;99.90;;;;;;5071482;28;20047;-74
2023/06/17 08:58:53;;;;;;;0.77;0.77;;;20.90;99.90;;;;;;5071387;28;20047;-76
2023/06/17 09:01:20;;;;;;;1.35;0.95;;;20.80;99.90;;;;;;5088610;28;20136;-75
2023/06/17 09:03:50;;;;;;;1.00;1.00;;;20.80;99.90;;;;;;5072251;28;20442;-75
2023/06/17 09:06:23;;;;;;;2.03;1.55;;;20.80;99.90;;;;;;5068892;28;20106;-76
2023/06/17 09:08:52;;;;;;;1.02;0.90;;;20.80;99.90;;;;;;5085299;28;20040;-75
2023/06/17 09:11:23;;;;;;;0.88;0.88;;;21.00;99.90;;;;;;5052287;28;20059;-75
2023/06/17 09:13:55;;;;;;;0.85;0.85;;;21.10;99.90;;;;;;5088482;28;20051;-75
2023/06/17 09:16:29;;;;;;;0.57;0.57;;;21.30;99.90;;;;;;5088437;28;20047;-75
2023/06/17 09:19:03;;;;;;;1.63;1.50;;;21.40;99.90;;;;;;5088120;28;20075;-75
2023/06/17 09:21:29;;;;;;;1.85;1.75;;;21.40;99.90;;;;;;5073781;28;20043;-76
2023/06/17 09:23:55;;;;;;;0.55;0.55;;;21.40;99.90;;;;;;5091904;28;20088;-76
2023/06/17 09:26:27;;;;;;;1.30;1.10;;;21.50;99.90;;;;;;5072408;28;20041;-76
2023/06/17 09:28:53;;;;;;;0.43;0.43;;;21.50;99.90;;;;;;5071389;28;20539;-76
2023/06/17 09:31:18;;;;;;;0.50;0.50;;;21.50;99.90;;;;;;5105713;28;20080;-76
2023/06/17 09:33:45;;;;;;;1.23;1.13;;;21.50;99.90;;;;;;5075071;28;20078;-76
2023/06/17 09:36:11;;;;;;;1.35;1.25;;;21.50;99.90;;;;;;5074210;28;20043;-75
2023/06/17 09:38:41;;;;;;;1.15;1.00;;;21.50;99.90;;;;;;5091864;28;20043;-75
2023/06/17 09:41:12;;;;;;;0.82;0.82;;;21.70;99.90;;;;;;5091611;28;20166;-74
2023/06/17 09:43:38;;;;;;;1.13;1.05;;;21.80;99.90;;;;;;5092157;28;20071;-74
2023/06/17 09:46:04;;;;;;;0.88;0.88;;;22.00;99.90;;;;;;5091748;28;20444;-75
2023/06/17 09:48:37;;;;;;;1.42;1.33;;;22.10;99.90;;;;;;5058455;28;20040;-75
2023/06/17 09:51:09;;;;;;;0.95;0.95;;;22.20;99.90;;;;;;5092868;28;20428;-75
2023/06/17 09:53:35;;;;;;;0.68;0.60;;;22.30;99.90;;;;;;5089204;28;20075;-75
2023/06/17 09:56:02;;;;;;;0.75;0.75;;;22.30;99.90;;;;;;5074471;28;20131;-74
2023/06/17 09:58:30;;;;;;;1.60;1.33;;;22.30;99.90;;;;;;5091360;28;20097;-75
2023/06/17 10:01:06;;;;;;;1.05;0.95;;;22.30;99.90;;;;;;5091288;28;20067;-74
2023/06/17 10:03:33;;;;;;;1.17;1.00;;;22.30;99.90;;;;;;5091175;28;20442;-74
2023/06/17 10:06:10;;;;;;;1.02;0.90;;;22.40;99.90;;;;;;5074290;28;20393;-75
2023/06/17 10:08:43;;;;;;;2.83;1.00;;;22.40;99.90;;;;;;5091580;28;20055;-75
2023/06/17 10:11:12;;;;;;;1.40;1.30;;;22.40;99.90;;;;;;5090550;28;20040;-75
2023/06/17 10:13:40;;;;;;;1.30;1.20;;;22.50;99.90;;;;;;5091114;28;20546;-75
2023/06/17 10:16:10;;;;;;;0.45;0.45;;;22.50;99.90;;;;;;5091020;28;20106;-76
2023/06/17 10:18:38;;;;;;;0.30;0.30;;;22.60;99.90;;;;;;5091293;28;20044;-76
2023/06/17 10:21:07;;;;;;;1.55;1.08;;;22.70;99.90;;;;;;5074193;28;20463;-75
2023/06/17 10:23:36;;;;;;;0.52;0.52;;;22.70;99.90;;;;;;5074275;28;20082;-75
2023/06/17 10:26:07;;;;;;;1.13;0.90;;;22.80;99.90;;;;;;5090624;28;20044;-75
2023/06/17 10:28:55;;;;;;;2.63;2.10;;;22.80;99.90;;;;;;5107993;28;20052;-75
2023/06/17 10:31:28;;;;;;;0.60;0.60;;;23.00;99.90;;;;;;5090890;28;20052;-75
2023/06/17 10:33:55;;;;;;;1.90;1.30;;;23.00;99.90;;;;;;5074659;28;20048;-75
2023/06/17 10:36:21;;;;;;;2.00;1.58;;;23.00;99.90;;;;;;5091007;28;20404;-76
2023/06/17 10:39:16;;;;;;;0.98;0.73;;;23.10;99.90;;;;;;5090925;28;20055;-75
2023/06/17 10:41:42;;;;;;;0.45;0.40;;;23.30;99.90;;;;;;5078151;28;20058;-75
2023/06/17 10:44:41;;;;;;;1.90;1.42;;;23.30;99.90;;;;;;5090456;28;20484;-74
2023/06/17 10:47:20;;;;;;;0.60;0.57;;;23.40;99.90;;;;;;5075021;28;20416;-76
2023/06/17 10:49:50;;;;;;;1.02;0.80;;;23.50;99.90;;;;;;5074472;28;20040;-75
2023/06/17 10:52:17;;;;;;;0.40;0.40;;;23.60;99.90;;;;;;5090565;28;20144;-75
2023/06/17 10:54:52;;;;;;;0.70;0.55;;;23.70;99.90;;;;;;5073661;28;20512;-75
2023/06/17 10:57:31;;;;;;;1.73;1.63;;;23.70;99.90;;;;;;5073444;28;20441;-74
2023/06/17 11:00:08;;;;;;;0.73;0.73;;;23.70;99.90;;;;;;5090120;28;20517;-74
2023/06/17 11:02:38;;;;;;;0.88;0.50;;;23.80;99.90;;;;;;5090606;28;20047;-75
2023/06/17 11:05:05;;;;;;;0.30;0.30;;;23.90;99.90;;;;;;5090314;28;20062;-75
2023/06/17 11:07:31;;;;;;;1.05;1.05;;;24.00;99.90;;;;;;5073344;28;20040;-75
2023/06/17 11:09:56;;;;;;;0.52;0.52;;;24.10;99.90;;;;;;5073939;28;20051;-74
2023/06/17 11:12:22;;;;;;;1.15;0.73;;;24.20;99.90;;;;;;5073248;28;20036;-75
2023/06/17 11:14:48;;;;;;;1.73;1.63;;;24.20;99.90;;;;;;5090269;28;20139;-76
2023/06/17 11:17:14;;;;;;;1.30;1.20;;;24.30;99.90;;;;;;5072951;28;20044;-75
2023/06/17 11:19:39;;;;;;;0.80;0.68;;;24.40;99.90;;;;;;5073703;28;20135;-75
2023/06/17 11:22:07;;;;;;;1.10;1.00;;;24.50;99.90;;;;;;5089581;28;20051;-75
2023/06/17 11:24:34;;;;;;;1.08;0.93;;;24.70;99.90;;;;;;5073991;28;20048;-74
2023/06/17 11:27:01;;;;;;;1.50;1.33;;;24.80;99.90;;;;;;5089422;28;20123;-76
2023/06/17 11:29:27;;;;;;;0.70;0.52;;;24.80;99.90;;;;;;5073085;28;20040;-75
2023/06/17 11:31:53;;;;;;;1.00;0.95;;;24.80;99.90;;;;;;5090019;28;20077;-75
2023/06/17 11:34:22;;;;;;;2.40;1.23;;;24.90;99.90;;;;;;5106282;28;20039;-75
2023/06/17 11:36:55;;;;;;;0.90;0.90;;;24.90;99.90;;;;;;5089479;28;20056;-75
2023/06/17 11:39:26;;;;;;;0.65;0.47;;;24.90;99.90;;;;;;5090276;28;20389;-76
2023/06/17 11:41:52;;;;;;;0.85;0.60;;;24.90;99.90;;;;;;5090235;28;20040;-75
2023/06/17 11:44:19;;;;;;;0.45;0.40;;;24.90;99.90;;;;;;5090734;28;20040;-76
2023/06/17 11:46:49;;;;;;;1.33;0.73;;;25.00;99.90;;;;;;5089606;28;20048;-75
2023/06/17 11:49:15;;;;;;;1.70;1.60;;;25.10;99.90;;;;;;5089108;28;20058;-76
2023/06/17 11:51:50;;;;;;;1.92;1.75;;;25.00;99.90;;;;;;5089517;28;20040;-75
2023/06/17 11:54:18;;;;;;;1.23;1.13;;;24.90;99.90;;;;;;5089116;28;20040;-75
2023/06/17 11:56:44;;;;;;;2.70;2.10;;;25.00;99.90;;;;;;5089242;28;20374;-75
2023/06/17 11:59:11;;;;;;;0.75;0.73;;;25.30;99.90;;;;;;5072518;28;20055;-75
2023/06/17 12:01:37;;;;;;;0.95;0.85;;;25.40;99.90;;;;;;5090453;28;20087;-76
2023/06/17 12:04:03;;;;;;;1.00;0.52;;;25.50;99.90;;;;;;5089601;28;20690;-76
2023/06/17 12:06:31;;;;;;;1.48;0.73;;;25.50;99.90;;;;;;5072251;28;20056;-75
2023/06/17 12:09:03;;;;;;;1.00;0.90;;;25.60;99.90;;;;;;5072347;28;20044;-74
2023/06/17 12:11:31;;;;;;;1.10;0.60;;;25.60;99.50;;;;;;5089692;28;20052;-74
2023/06/17 12:14:00;;;;;;;1.23;1.13;;;25.80;99.90;;;;;;5088999;28;20081;-74
2023/06/17 12:16:34;;;;;;;0.70;0.70;;;25.70;99.90;;;;;;5088954;28;20043;-75
2023/06/17 12:19:01;;;;;;;3.03;0.85;;;25.80;99.90;;;;;;5071937;28;20055;-76
2023/06/17 12:21:28;;;;;;;2.83;0.93;;;25.90;99.30;;;;;;5071884;28;20508;-75
2023/06/17 12:23:55;;;;;;;0.65;0.65;;;25.90;99.20;;;;;;5089187;28;20044;-76
2023/06/17 12:26:24;;;;;;;0.40;0.40;;;25.90;98.00;;;;;;5088256;28;20048;-77
2023/06/17 12:28:50;;;;;;;0.00;0.00;;;25.90;99.30;;;;;;5088960;28;20038;-76
2023/06/17 12:31:19;;;;;;;1.30;1.20;;;26.10;99.80;;;;;;5088120;28;20056;-76
2023/06/17 12:33:46;;;;;;;4.07;0.98;;;26.20;98.90;;;;;;5088671;28;20060;-76
2023/06/17 12:36:12;;;;;;;0.30;0.30;;;26.30;99.20;;;;;;5071886;28;20040;-76
2023/06/17 12:38:39;;;;;;;0.95;0.95;;;26.40;99.50;;;;;;5089318;28;20466;-76
2023/06/17 12:41:06;;;;;;;0.93;0.65;;;26.40;98.90;;;;;;5088178;28;20060;-76
2023/06/17 12:43:31;;;;;;;0.68;0.57;;;26.30;99.00;;;;;;5071999;28;20044;-76
2023/06/17 12:45:58;;;;;;;0.40;0.40;;;26.20;99.20;;;;;;5055346;28;20044;-76
2023/06/17 12:48:28;;;;;;;0.55;0.55;;;26.20;99.60;;;;;;5088571;28;20477;-77
2023/06/17 12:50:55;;;;;;;0.57;0.57;;;26.30;99.50;;;;;;5071592;28;20036;-77
2023/06/17 12:53:22;;;;;;;0.55;0.38;;;26.40;99.90;;;;;;5088279;28;20168;-76
2023/06/17 12:55:48;;;;;;;0.50;0.40;;;26.60;99.70;;;;;;5088202;28;20136;-76
2023/06/17 12:58:13;;;;;;;1.60;1.55;;;26.70;99.90;;;;;;5072116;28;20043;-76
2023/06/17 13:00:39;;;;;;;0.60;0.55;;;26.70;99.20;;;;;;5088053;28;20089;-77
2023/06/17 13:03:05;;;;;;;0.40;0.40;;;26.70;99.40;;;;;;5088188;28;20076;-77